Time;durP1;ratioP1;P1;durP2;ratioP2;P2;SDS_P1;SDS_P2;PMS_P1;PMS_P2;Temp;Humidity;BMP_temperature;BMP_pressure;BME280_temperature;BME280_humidity;BME280_pressure;Samples;Min_cycle;Max_cycle;Signal;HPM_P1;HPM_P2
2023/05/27 00:00:44;;;;;;;;;;;;;;;-140.72;100.00;52628.28;6253225;23;19965;-70
2023/05/27 00:03:09;;;;;;;;;;;;;;;-140.72;100.00;52660.75;6246158;23;19998;-70
2023/05/27 00:05:34;;;;;;;;;;;;;;;-140.72;100.00;52648.56;6245601;23;19911;-71
2023/05/27 00:07:59;;;;;;;;;;;;;;;-140.72;100.00;52638.41;6245850;23;19918;-71
2023/05/27 00:10:24;;;;;;;;;;;;;;;-140.72;100.00;52662.78;6218289;23;20082;-71
2023/05/27 00:12:50;;;;;;;;;;;;;;;-140.72;100.00;52676.97;6244705;23;20288;-71
2023/05/27 00:15:17;;;;;;;;;;;;;;;-140.72;100.00;52670.88;6244319;23;19916;-70
2023/05/27 00:17:42;;;;;;;;;;;;;;;-140.72;100.00;52642.47;6244797;23;19911;-71
2023/05/27 00:20:09;;;;;;;;;;;;;;;-140.72;100.00;52672.91;6244290;23;19919;-70
2023/05/27 00:22:36;;;;;;;;;;;;;;;-140.72;100.00;52650.59;6217399;23;19915;-71
2023/05/27 00:25:01;;;;;;;;;;;;;;;-140.72;100.00;52699.31;6244730;23;20255;-71
2023/05/27 00:27:26;;;;;;;;;;;;;;;-140.72;100.00;52668.84;6244096;23;19961;-72
2023/05/27 00:29:52;;;;;;;;;;;;;;;-140.72;100.00;52674.94;6244244;23;20354;-70
2023/05/27 00:32:17;;;;;;;;;;;;;;;-140.72;100.00;52676.97;6244461;23;20279;-71
2023/05/27 00:34:47;;;;;;;;;;;;;;;-140.72;100.00;52668.84;6244481;22;20346;-70
2023/05/27 00:37:14;;;;;;;;;;;;;;;-140.72;100.00;52662.78;6244487;23;20073;-71
2023/05/27 00:39:45;;;;;;;;;;;;;;;-140.72;100.00;52676.97;6243990;23;19939;-70
2023/05/27 00:42:11;;;;;;;;;;;;;;;-140.72;100.00;52699.31;6244513;23;19916;-71
2023/05/27 00:44:36;;;;;;;;;;;;;;;-140.72;100.00;52679.00;6244685;23;20343;-71
2023/05/27 00:47:01;;;;;;;;;;;;;;;-140.72;100.00;52656.69;6244633;23;20356;-71
2023/05/27 00:49:27;;;;;;;;;;;;;;;-140.72;100.00;52689.16;6245621;23;20220;-70
2023/05/27 00:51:52;;;;;;;;;;;;;;;-140.72;100.00;52646.53;6217961;23;19915;-72
2023/05/27 00:54:18;;;;;;;;;;;;;;;-140.72;100.00;52666.84;6244652;23;20324;-71
2023/05/27 00:56:43;;;;;;;;;;;;;;;-140.72;100.00;52654.66;6244523;23;20222;-71
2023/05/27 00:59:09;;;;;;;;;;;;;;;-140.72;100.00;52642.47;6244008;23;19919;-71
2023/05/27 01:01:36;;;;;;;;;;;;;;;-140.72;100.00;52670.88;6217006;23;20289;-71
2023/05/27 01:04:02;;;;;;;;;;;;;;;-140.72;100.00;52670.88;6244087;23;19912;-71
2023/05/27 01:06:36;;;;;;;;;;;;;;;-140.72;100.00;52715.53;6243477;23;19996;-71
2023/05/27 01:09:01;;;;;;;;;;;;;;;-140.72;100.00;52668.84;6216991;23;20327;-71
2023/05/27 01:11:34;;;;;;;;;;;;;;;-140.72;100.00;52666.84;6216661;23;20006;-71
2023/05/27 01:14:04;;;;;;;;;;;;;;;-140.72;100.00;52697.28;6244105;23;19947;-71
2023/05/27 01:16:32;;;;;;;;;;;;;;;-140.72;100.00;52654.66;6243262;23;20314;-71
2023/05/27 01:18:59;;;;;;;;;;;;;;;-140.72;100.00;52660.75;6216472;23;19956;-71
2023/05/27 01:21:29;;;;;;;;;;;;;;;-140.72;100.00;52662.78;6243673;23;19915;-72
2023/05/27 01:24:02;;;;;;;;;;;;;;;-140.72;100.00;52695.25;6243715;23;20343;-71
2023/05/27 01:26:27;;;;;;;;;;;;;;;-140.72;100.00;52674.94;6216515;23;19919;-71
2023/05/27 01:28:52;;;;;;;;;;;;;;;-140.72;100.00;52723.66;6216440;23;19995;-70
2023/05/27 01:31:42;;;;;;;;;;;;;;;-140.72;100.00;52668.84;6243758;23;19918;-71
2023/05/27 01:34:09;;;;;;;;;;;;;;;-140.72;100.00;52687.13;6244105;22;19912;-71
2023/05/27 01:36:37;;;;;;;;;;;;;;;-140.72;100.00;52685.09;6243587;23;19919;-71
2023/05/27 01:39:04;;;;;;;;;;;;;;;-140.72;100.00;52687.13;6217356;23;19934;-71
2023/05/27 01:41:30;;;;;;;;;;;;;;;-140.72;100.00;52656.69;6243880;23;19912;-71
2023/05/27 01:43:56;;;;;;;;;;;;;;;-140.72;100.00;52723.66;6216574;23;19986;-71
2023/05/27 01:46:21;;;;;;;;;;;;;;;-140.72;100.00;52697.28;6244398;23;20239;-72
2023/05/27 01:48:46;;;;;;;;;;;;;;;-140.72;100.00;52685.09;6247321;23;19919;-71
2023/05/27 01:51:12;;;;;;;;;;;;;;;-140.72;100.00;52676.97;6244144;23;19911;-71
2023/05/27 01:53:37;;;;;;;;;;;;;;;-140.72;100.00;52664.81;6243429;23;19915;-71
2023/05/27 01:56:02;;;;;;;;;;;;;;;-140.72;100.00;52691.19;6216511;23;19934;-71
2023/05/27 01:58:27;;;;;;;;;;;;;;;-140.72;100.00;52670.88;6243054;23;19919;-71
2023/05/27 02:00:53;;;;;;;;;;;;;;;-140.72;100.00;52695.25;6243421;23;20324;-71
2023/05/27 02:03:18;;;;;;;;;;;;;;;-140.72;100.00;52715.53;6216833;23;19913;-71
2023/05/27 02:05:44;;;;;;;;;;;;;;;-140.72;100.00;52681.03;6245141;23;19912;-71
2023/05/27 02:08:10;;;;;;;;;;;;;;;-140.72;100.00;52672.91;6245261;23;19977;-71
2023/05/27 02:10:35;;;;;;;;;;;;;;;-140.72;100.00;52685.09;6245614;23;19919;-71
2023/05/27 02:13:00;;;;;;;;;;;;;;;-140.72;100.00;52703.34;6245622;23;19911;-71
2023/05/27 02:15:26;;;;;;;;;;;;;;;-140.72;100.00;52656.69;6218460;23;19915;-71
2023/05/27 02:17:54;;;;;;;;;;;;;;;-140.72;100.00;52679.00;6245628;23;19923;-71
2023/05/27 02:20:20;;;;;;;;;;;;;;;-140.72;100.00;52733.78;6245910;23;19911;-71
2023/05/27 02:22:45;;;;;;;;;;;;;;;-140.72;100.00;52691.19;6245307;23;19912;-71
2023/05/27 02:25:11;;;;;;;;;;;;;;;-140.72;100.00;52725.69;6245770;23;19930;-71
2023/05/27 02:27:36;;;;;;;;;;;;;;;-140.72;100.00;52693.22;6245447;23;19919;-71
2023/05/27 02:30:01;;;;;;;;;;;;;;;-140.72;100.00;52691.19;6245883;23;19919;-71
2023/05/27 02:32:26;;;;;;;;;;;;;;;-140.72;100.00;52717.56;6245433;23;19912;-71
2023/05/27 02:34:53;;;;;;;;;;;;;;;-140.72;100.00;52672.91;6243498;22;19912;-71
2023/05/27 02:37:19;;;;;;;;;;;;;;;-140.72;100.00;52689.16;6245232;23;19985;-71
2023/05/27 02:39:46;;;;;;;;;;;;;;;-140.72;100.00;52723.66;6217663;23;19915;-71
2023/05/27 02:42:11;;;;;;;;;;;;;;;-140.72;100.00;52713.50;6244938;23;19919;-71
2023/05/27 02:44:36;;;;;;;;;;;;;;;-140.72;100.00;52723.66;6244595;23;19934;-71
2023/05/27 02:47:02;;;;;;;;;;;;;;;-140.72;100.00;52699.31;6245067;23;20243;-71
2023/05/27 02:49:27;;;;;;;;;;;;;;;-140.72;100.00;52668.84;6244462;23;19912;-72
2023/05/27 02:51:52;;;;;;;;;;;;;;;-140.72;100.00;52717.56;6245863;23;20292;-71
2023/05/27 02:54:17;;;;;;;;;;;;;;;-140.72;100.00;52674.94;6249435;23;20390;-71
2023/05/27 02:56:43;;;;;;;;;;;;;;;-140.72;100.00;52679.00;6222449;23;20324;-71
2023/05/27 02:59:08;;;;;;;;;;;;;;;-140.72;100.00;52697.28;6249196;23;19911;-71
2023/05/27 03:01:33;;;;;;;;;;;;;;;-140.72;100.00;52721.63;6246215;23;19911;-71
2023/05/27 03:03:58;;;;;;;;;;;;;;;-140.72;100.00;52709.44;6245780;23;19918;-71
2023/05/27 03:06:23;;;;;;;;;;;;;;;-140.72;100.00;52689.16;6245778;23;19911;-71
2023/05/27 03:08:49;;;;;;;;;;;;;;;-140.72;100.00;52752.06;6245613;23;19912;-71
2023/05/27 03:11:14;;;;;;;;;;;;;;;-140.72;100.00;52713.50;6218721;23;19911;-71
2023/05/27 03:13:39;;;;;;;;;;;;;;;-140.72;100.00;52695.25;6218607;23;19962;-71
2023/05/27 03:16:05;;;;;;;;;;;;;;;-140.72;100.00;52703.34;6245641;23;19989;-71
2023/05/27 03:18:30;;;;;;;;;;;;;;;-140.72;100.00;52719.59;6218234;23;19911;-71
2023/05/27 03:20:56;;;;;;;;;;;;;;;-140.72;100.00;52687.13;6217953;23;20001;-71
2023/05/27 03:23:21;;;;;;;;;;;;;;;-140.72;100.00;52693.22;6244592;23;19912;-71
2023/05/27 03:25:46;;;;;;;;;;;;;;;-140.72;100.00;52743.94;6245145;23;19994;-71
2023/05/27 03:28:11;;;;;;;;;;;;;;;-140.72;100.00;52752.06;6218048;23;19923;-71
2023/05/27 03:30:38;;;;;;;;;;;;;;;-140.72;100.00;52715.53;6245539;23;19911;-71
2023/05/27 03:33:03;;;;;;;;;;;;;;;-140.72;100.00;52709.44;6262861;22;19926;-71
2023/05/27 03:35:28;;;;;;;;;;;;;;;-140.72;100.00;52699.31;6233263;23;19912;-71
2023/05/27 03:37:53;;;;;;;;;;;;;;;-140.72;100.00;52707.41;6245556;23;19911;-71
2023/05/27 03:40:18;;;;;;;;;;;;;;;-140.72;100.00;52691.19;6244830;23;19912;-70
2023/05/27 03:42:44;;;;;;;;;;;;;;;-140.72;100.00;52748.00;6244712;23;19935;-71
2023/05/27 03:45:09;;;;;;;;;;;;;;;-140.72;100.00;52707.41;6244858;23;19989;-70
2023/05/27 03:47:35;;;;;;;;;;;;;;;-140.72;100.00;52707.41;6244451;23;19911;-71
2023/05/27 03:50:01;;;;;;;;;;;;;;;-140.72;100.00;52681.03;6245048;23;19983;-70
2023/05/27 03:52:26;;;;;;;;;;;;;;;-140.72;100.00;52715.53;6217598;23;19962;-71
2023/05/27 03:54:51;;;;;;;;;;;;;;;-140.72;100.00;52741.91;6217492;23;19986;-71
2023/05/27 03:57:17;;;;;;;;;;;;;;;-140.72;100.00;52711.47;6217262;23;19919;-70
2023/05/27 03:59:42;;;;;;;;;;;;;;;-140.72;100.00;52713.50;6244391;23;19915;-71
2023/05/27 04:02:07;;;;;;;;;;;;;;;-140.72;100.00;52735.81;6244429;23;20062;-70
2023/05/27 04:04:33;;;;;;;;;;;;;;;-140.72;100.00;52707.41;6244798;23;19915;-70
2023/05/27 04:06:58;;;;;;;;;;;;;;;-140.72;100.00;52727.72;6244135;23;19923;-71
2023/05/27 04:09:23;;;;;;;;;;;;;;;-140.72;100.00;52699.31;6244406;23;20319;-71
2023/05/27 04:11:48;;;;;;;;;;;;;;;-140.72;100.00;52727.72;6217196;23;20324;-70
2023/05/27 04:14:13;;;;;;;;;;;;;;;-140.72;100.00;52711.47;6217837;23;20342;-70
2023/05/27 04:16:41;;;;;;;;;;;;;;;-140.72;100.00;52670.88;6217259;23;19911;-71
2023/05/27 04:19:07;;;;;;;;;;;;;;;-140.72;100.00;52774.38;6244829;23;19911;-71
2023/05/27 04:21:32;;;;;;;;;;;;;;;-140.72;100.00;52723.66;6217779;23;20330;-71
2023/05/27 04:23:57;;;;;;;;;;;;;;;-140.72;100.00;52727.72;6244395;23;19912;-71
2023/05/27 04:26:22;;;;;;;;;;;;;;;-140.72;100.00;52691.19;6217058;23;20097;-71
2023/05/27 04:28:48;;;;;;;;;;;;;;;-140.72;100.00;52715.53;6244176;23;19946;-71
2023/05/27 04:31:15;;;;;;;;;;;;;;;-140.72;100.00;52695.25;6243916;23;19912;-71
2023/05/27 04:33:41;;;;;;;;;;;;;;;-140.72;100.00;52721.63;6243490;22;19985;-71
2023/05/27 04:36:07;;;;;;;;;;;;;;;-140.72;100.00;52709.44;6244018;23;19912;-71
2023/05/27 04:38:32;;;;;;;;;;;;;;;-140.72;100.00;52758.16;6243901;23;19911;-71
2023/05/27 04:40:58;;;;;;;;;;;;;;;-140.72;100.00;52717.56;6243711;23;19918;-71
2023/05/27 04:43:26;;;;;;;;;;;;;;;-140.72;100.00;52699.31;6244165;23;19923;-71
2023/05/27 04:45:51;;;;;;;;;;;;;;;-140.72;100.00;52717.56;6243938;23;20001;-72
2023/05/27 04:48:16;;;;;;;;;;;;;;;-140.72;100.00;52672.91;6243643;23;20025;-73
2023/05/27 04:50:53;;;;;;;;;;;;;;;-140.72;100.00;52715.53;6217083;23;19943;-73
2023/05/27 04:53:18;;;;;;;;;;;;;;;-140.72;100.00;52717.56;6217299;23;19911;-73
2023/05/27 04:55:44;;;;;;;;;;;;;;;-140.72;100.00;52679.00;6219870;23;19918;-75
2023/05/27 04:58:09;;;;;;;;;;;;;;;-140.72;100.00;52683.06;6244934;23;19915;-74
2023/05/27 05:00:52;;;;;;;;;;;;;;;-140.72;100.00;52691.19;6216571;23;19916;-73
2023/05/27 05:03:21;;;;;;;;;;;;;;;-140.72;100.00;52674.94;6244477;23;19918;-73
2023/05/27 05:05:53;;;;;;;;;;;;;;;-140.72;100.00;52715.53;6216703;23;20307;-74
2023/05/27 05:08:19;;;;;;;;;;;;;;;-140.72;100.00;52701.31;6244515;23;20335;-73
2023/05/27 05:10:46;;;;;;;;;;;;;;;-140.72;100.00;52711.47;6217091;23;19915;-73
2023/05/27 05:13:12;;;;;;;;;;;;;;;-140.72;100.00;52676.97;6216717;23;19922;-73
2023/05/27 05:15:37;;;;;;;;;;;;;;;-140.72;100.00;52670.88;6244235;23;19920;-73
2023/05/27 05:18:02;;;;;;;;;;;;;;;-140.72;100.00;52644.50;6217183;23;20041;-73
2023/05/27 05:20:27;;;;;;;;;;;;;;;-140.72;100.00;52679.00;6244686;23;19911;-73
2023/05/27 05:22:53;;;;;;;;;;;;;;;-140.72;100.00;52668.84;6260780;22;19936;-74
2023/05/27 05:25:18;;;;;;;;;;;;;;;-140.72;100.00;52681.03;6252073;23;20014;-74
2023/05/27 05:27:43;;;;;;;;;;;;;;;-140.72;100.00;52656.69;6247005;23;19963;-73
2023/05/27 05:30:08;;;;;;;;;;;;;;;-140.72;100.00;52650.59;6218220;23;19920;-73
2023/05/27 05:32:34;;;;;;;;;;;;;;;-140.72;100.00;52681.03;6245224;23;19990;-73
2023/05/27 05:34:59;;;;;;;;;;;;;;;-140.72;100.00;52646.53;6217595;23;19911;-74
2023/05/27 05:37:24;;;;;;;;;;;;;;;-140.72;100.00;52666.84;6218852;23;19931;-74
2023/05/27 05:39:50;;;;;;;;;;;;;;;-140.72;100.00;52685.09;6219270;23;19919;-74
2023/05/27 05:42:17;;;;;;;;;;;;;;;-140.72;100.00;52679.00;6219686;23;19918;-74
2023/05/27 05:44:42;;;;;;;;;;;;;;;-140.72;100.00;52662.78;6219319;23;19911;-72
2023/05/27 05:47:07;;;;;;;;;;;;;;;-140.72;100.00;52687.13;6246088;23;19919;-75
2023/05/27 05:49:33;;;;;;;;;;;;;;;-140.72;100.00;52650.59;6218793;23;20346;-72
2023/05/27 05:51:58;;;;;;;;;;;;;;;-140.72;100.00;52662.78;6218938;23;19912;-71
2023/05/27 05:54:23;;;;;;;;;;;;;;;-140.72;100.00;52660.75;6218716;23;19994;-72
2023/05/27 05:56:48;;;;;;;;;;;;;;;-140.72;100.00;52664.81;6245867;23;19919;-72
2023/05/27 05:59:14;;;;;;;;;;;;;;;-140.72;100.00;52672.91;6245706;23;20303;-71
2023/05/27 06:01:39;;;;;;;;;;;;;;;-140.72;100.00;52650.59;6219007;23;19912;-72
2023/05/27 06:04:06;;;;;;;;;;;;;;;-140.72;100.00;52670.88;6245353;23;20049;-72
2023/05/27 06:06:31;;;;;;;;;;;;;;;-140.72;100.00;52646.53;6246599;23;19912;-71
2023/05/27 06:08:56;;;;;;;;;;;;;;;-140.72;100.00;52668.84;6245787;23;19987;-72
2023/05/27 06:11:21;;;;;;;;;;;;;;;-140.72;100.00;52626.25;6245855;23;20137;-72
2023/05/27 06:13:47;;;;;;;;;;;;;;;-140.72;100.00;52624.22;6218511;23;19922;-71
2023/05/27 06:16:13;;;;;;;;;;;;;;;-140.72;100.00;52597.84;6246576;23;19991;-73
2023/05/27 06:18:38;;;;;;;;;;;;;;;-140.72;100.00;52662.78;6246102;23;20002;-73
2023/05/27 06:21:03;;;;;;;;;;;;;;;-140.72;100.00;52650.59;6246153;23;19981;-72
2023/05/27 06:23:28;;;;;;;;;;;;;;;-140.72;100.00;52636.38;6246395;23;19912;-75
2023/05/27 06:25:53;;;;;;;;;;;;;;;-140.72;100.00;52648.56;6245467;23;19915;-72
2023/05/27 06:28:19;;;;;;;;;;;;;;;-140.72;100.00;52603.94;6245256;23;19999;-72
2023/05/27 06:30:44;;;;;;;;;;;;;;;-140.72;100.00;52626.25;6245741;23;19912;-71
2023/05/27 06:33:09;;;;;;;;;;;;;;;-140.72;100.00;52634.38;6246171;22;19912;-71
2023/05/27 06:35:35;;;;;;;;;;;;;;;-140.72;100.00;52624.22;6246040;23;20026;-72
2023/05/27 06:38:01;;;;;;;;;;;;;;;-140.72;100.00;52630.31;6218767;23;19982;-72
2023/05/27 06:40:26;;;;;;;;;;;;;;;-140.72;100.00;52614.06;6245711;23;19915;-71
2023/05/27 06:42:51;;;;;;;;;;;;;;;-140.72;100.00;52610.00;6218737;23;19912;-71
2023/05/27 06:45:16;;;;;;;;;;;;;;;-140.72;100.00;52601.91;6218716;23;20244;-73
2023/05/27 06:47:42;;;;;;;;;;;;;;;-140.72;100.00;52618.13;6218724;23;20457;-73
2023/05/27 06:50:07;;;;;;;;;;;;;;;-140.72;100.00;52597.84;6218405;23;20381;-74
2023/05/27 06:52:32;;;;;;;;;;;;;;;-140.72;100.00;52587.69;6245535;23;19964;-73
2023/05/27 06:54:57;;;;;;;;;;;;;;;-140.72;100.00;52622.19;6218592;23;19920;-73
2023/05/27 06:57:29;;;;;;;;;;;;;;;-140.72;100.00;52597.84;6218511;23;19911;-73
2023/05/27 06:59:55;;;;;;;;;;;;;;;-140.72;100.00;52597.84;6245161;23;19911;-73
2023/05/27 07:02:20;;;;;;;;;;;;;;;-140.72;100.00;52591.75;6245841;23;19918;-72
2023/05/27 07:04:45;;;;;;;;;;;;;;;-140.72;100.00;52569.44;6218812;23;19927;-72
2023/05/27 07:07:11;;;;;;;;;;;;;;;-140.72;100.00;52581.59;6219469;23;20231;-72
2023/05/27 07:09:36;;;;;;;;;;;;;;;-140.72;100.00;52575.50;6257059;23;19922;-72
2023/05/27 07:12:01;;;;;;;;;;;;;;;-140.72;100.00;52571.47;6264801;22;19947;-73
2023/05/27 07:14:26;;;;;;;;;;;;;;;-140.72;100.00;52591.75;6250622;23;19915;-72
2023/05/27 07:16:52;;;;;;;;;;;;;;;-140.72;100.00;52612.03;6219228;23;20073;-73
2023/05/27 07:19:17;;;;;;;;;;;;;;;-140.72;100.00;52569.44;6246141;23;19947;-73
2023/05/27 07:21:42;;;;;;;;;;;;;;;-140.72;100.00;52589.72;6247683;23;19915;-73
2023/05/27 07:24:07;;;;;;;;;;;;;;;-140.72;100.00;52612.03;6218461;23;19911;-73
2023/05/27 07:26:33;;;;;;;;;;;;;;;-140.72;100.00;52569.44;6245877;23;20028;-73
2023/05/27 07:28:59;;;;;;;;;;;;;;;-140.72;100.00;52573.50;6218312;23;19973;-73
2023/05/27 07:31:25;;;;;;;;;;;;;;;-140.72;100.00;52591.75;6246508;23;19918;-72
2023/05/27 07:33:50;;;;;;;;;;;;;;;-140.72;100.00;52536.97;6218281;23;20466;-73
2023/05/27 07:36:15;;;;;;;;;;;;;;;-140.72;100.00;52549.13;6217705;23;20341;-74
2023/05/27 07:38:40;;;;;;;;;;;;;;;-140.72;100.00;52585.66;6245090;23;19915;-73
2023/05/27 07:41:06;;;;;;;;;;;;;;;-140.72;100.00;52567.41;6217314;23;19911;-73
2023/05/27 07:43:57;;;;;;;;;;;;;;;-140.72;100.00;52565.38;6245129;23;19919;-73
2023/05/27 07:46:22;;;;;;;;;;;;;;;-140.72;94.88;52557.25;6245422;23;19912;-74
2023/05/27 07:51:50;;;;;;;;;;;;;;;-140.72;40.01;52528.84;6245334;23;20294;-75
2023/05/27 07:54:16;;;;;;;;;;;;;;;-140.72;14.53;52490.28;6218379;23;19912;-76
2023/05/27 07:56:41;;;;;;;;;;;;;;;-140.72;5.29;52528.84;6245720;23;20251;-74
2023/05/27 07:59:06;;;;;;;;;;;;;;;-140.72;0.00;52536.97;6244759;23;19912;-74
2023/05/27 08:01:32;;;;;;;;;;;;;;;-140.72;0.00;52492.31;6244345;23;19919;-72
2023/05/27 08:03:58;;;;;;;;;;;;;;;-140.72;0.00;52506.53;6217961;23;19911;-74
2023/05/27 08:06:23;;;;;;;;;;;;;;;-140.72;0.00;52524.78;6217716;23;19985;-74
2023/05/27 08:08:48;;;;;;;;;;;;;;;-140.72;0.00;52490.28;6244644;23;20327;-73
2023/05/27 08:11:13;;;;;;;;;;;;;;;-140.72;0.00;52496.38;6218317;23;20395;-73
2023/05/27 08:13:39;;;;;;;;;;;;;;;-140.72;0.00;52459.84;6220769;23;20323;-74
2023/05/27 08:16:04;;;;;;;;;;;;;;;-140.72;0.00;52459.84;6222026;23;19962;-73
2023/05/27 08:18:29;;;;;;;;;;;;;;;-140.72;0.00;52437.53;6250607;23;19955;-72
2023/05/27 08:20:54;;;;;;;;;;;;;;;-140.72;0.00;52459.84;6218129;23;19912;-74
2023/05/27 08:23:21;;;;;;;;;;;;;;;-140.72;0.00;52451.72;6217062;23;19912;-75
2023/05/27 08:25:46;;;;;;;;;;;;;;;-140.72;0.00;52459.84;6244811;23;19912;-73
2023/05/27 08:28:11;;;;;;;;;;;;;;;-140.72;0.00;52443.63;6244797;23;19911;-74
2023/05/27 08:30:36;;;;;;;;;;;;;;;-140.72;0.00;52425.34;6245243;23;19915;-73
2023/05/27 08:33:13;;;;;;;;;;;;;;;-140.72;0.00;52403.03;6245251;22;19916;-72
2023/05/27 08:35:38;;;;;;;;;;;;;;;-140.72;0.00;52439.56;6218749;23;19915;-71
2023/05/27 08:38:04;;;;;;;;;;;;;;;-140.72;0.00;52396.94;6219149;23;19990;-74
2023/05/27 08:40:29;;;;;;;;;;;;;;;-140.72;0.00;52376.66;6221650;23;19919;-74
2023/05/27 08:42:55;;;;;;;;;;;;;;;-140.72;0.00;52368.53;6220059;23;19912;-70
2023/05/27 08:45:22;;;;;;;;;;;;;;;-140.72;0.00;52388.84;6245072;23;19927;-71
2023/05/27 08:47:48;;;;;;;;;;;;;;;-140.72;0.00;52386.81;6245152;23;19958;-72
2023/05/27 08:50:14;;;;;;;;;;;;;;;-140.72;0.00;52386.81;6217918;23;19911;-76
2023/05/27 08:52:51;;;;;;;;;;;;;;;-140.72;0.00;52358.41;6218128;23;19915;-77
2023/05/27 08:55:19;;;;;;;;;;;;;;;-140.72;0.00;52366.50;6218145;23;19919;-76
2023/05/27 08:57:48;;;;;;;;;;;;;;;-140.72;0.00;52378.69;6222326;23;19919;-74
2023/05/27 09:00:14;;;;;;;;;;;;;;;-140.72;0.00;52358.41;6222494;23;19938;-76
2023/05/27 09:02:40;;;;;;;;;;;;;;;-140.72;0.00;52364.47;6220291;23;20002;-74
2023/05/27 09:05:06;;;;;;;;;;;;;;;-140.72;0.00;52342.16;6245480;23;20480;-74
2023/05/27 09:07:31;;;;;;;;;;;;;;;-140.72;0.00;52269.13;6245412;23;19912;-74
2023/05/27 09:09:57;;;;;;;;;;;;;;;-140.72;0.00;52287.38;6244475;23;20394;-75
2023/05/27 09:12:23;;;;;;;;;;;;;;;-140.72;0.00;52352.31;6217428;23;19939;-74
2023/05/27 09:14:49;;;;;;;;;;;;;;;-140.72;0.00;52228.53;6216802;23;20197;-75
2023/05/27 09:17:15;;;;;;;;;;;;;;;-140.72;0.00;52228.53;6217700;23;19998;-75
2023/05/27 09:19:41;;;;;;;;;;;;;;;-140.72;0.00;52269.13;6244654;23;19950;-75
2023/05/27 09:22:06;;;;;;;;;;;;;;;-140.72;0.00;52212.31;6217964;23;19912;-72
2023/05/27 09:24:32;;;;;;;;;;;;;;;-140.72;0.00;52216.34;6217775;23;19912;-71
2023/05/27 09:26:57;;;;;;;;;;;;;;;-140.72;0.00;52206.22;6244472;23;19939;-71
2023/05/27 09:29:23;;;;;;;;;;;;;;;-140.72;0.00;52179.84;6217444;23;19922;-71
2023/05/27 09:31:48;;;;;;;;;;;;;;;-140.72;0.00;52192.00;6244242;23;19994;-71
2023/05/27 09:34:15;;;;;;;;;;;;;;;-140.72;0.00;52216.34;6217517;23;19912;-72
2023/05/27 09:36:43;;;;;;;;;;;;;;;-140.72;0.00;52194.03;6244957;23;19930;-72
2023/05/27 09:39:08;;;;;;;;;;;;;;;-140.72;0.00;52159.56;6244486;23;19916;-72
2023/05/27 09:41:34;;;;;;;;;;;;;;;-140.72;0.00;52118.97;6217939;23;19912;-72
2023/05/27 09:44:00;;;;;;;;;;;;;;;-140.72;0.00;52108.81;6244954;23;19912;-71
2023/05/27 09:46:26;;;;;;;;;;;;;;;-140.72;0.00;52161.56;6245025;23;19915;-71
2023/05/27 09:48:51;;;;;;;;;;;;;;;-140.72;0.00;52086.50;6217912;23;19912;-71
2023/05/27 09:51:16;;;;;;;;;;;;;;;-140.72;0.00;52076.34;6244815;23;20311;-71
2023/05/27 09:53:42;;;;;;;;;;;;;;;-140.72;0.00;52033.75;6217931;23;20244;-72
2023/05/27 09:56:07;;;;;;;;;;;;;;;-140.72;0.00;52104.75;6244766;23;20302;-72
2023/05/27 09:58:33;;;;;;;;;;;;;;;-140.72;0.00;52100.72;6244964;23;19915;-72
2023/05/27 10:00:59;;;;;;;;;;;;;;;-140.72;0.00;52049.97;6245953;23;19916;-72
2023/05/27 10:03:24;;;;;;;;;;;;;;;-140.72;0.00;52084.47;6245057;23;19916;-72
2023/05/27 10:05:50;;;;;;;;;;;;;;;-140.72;0.00;52045.94;6218228;23;19923;-72
2023/05/27 10:08:31;;;;;;;;;;;;;;;-140.72;0.00;52029.69;6243758;23;19922;-74
2023/05/27 10:11:03;;;;;;;;;;;;;;;-140.72;0.00;52035.78;6244423;23;20303;-74
2023/05/27 10:13:28;;;;;;;;;;;;;;;-140.72;0.00;51997.22;6244064;23;20697;-73
2023/05/27 10:15:54;;;;;;;;;;;;;;;-140.72;0.00;52017.53;6244464;23;19915;-74
2023/05/27 10:18:23;;;;;;;;;;;;;;;-140.72;0.00;51950.56;6217988;23;20324;-74
2023/05/27 10:20:50;;;;;;;;;;;;;;;-140.72;0.00;51948.53;6244462;23;19912;-73
2023/05/27 10:23:17;;;;;;;;;;;;;;;-140.72;0.00;51944.47;6217828;23;19939;-73
2023/05/27 10:25:47;;;;;;;;;;;;;;;-140.72;0.00;51956.66;6245593;23;20358;-74
2023/05/27 10:28:32;;;;;;;;;;;;;;;-140.72;0.00;51936.38;6245832;23;19915;-74
2023/05/27 10:31:04;;;;;;;;;;;;;;;-140.72;0.00;51956.66;6220139;23;19953;-84
2023/05/27 10:33:30;;;;;;;;;;;;;;;-140.72;0.00;51932.31;6227048;23;19912;-83
2023/05/27 10:35:56;;;;;;;;;;;;;;;-140.72;0.00;51936.38;6229525;23;20300;-82
2023/05/27 10:38:22;;;;;;;;;;;;;;;-140.72;0.00;51891.72;6226546;23;19942;-77
2023/05/27 10:40:47;;;;;;;;;;;;;;;-140.72;0.00;51853.19;6247063;23;19912;-73
2023/05/27 10:43:16;;;;;;;;;;;;;;;-140.72;0.00;51875.50;6219452;23;20350;-75
2023/05/27 10:45:42;;;;;;;;;;;;;;;-140.72;0.00;51834.91;6249855;23;20011;-74
2023/05/27 10:48:17;;;;;;;;;;;;;;;-140.72;0.00;51832.91;6250741;23;20208;-74
2023/05/27 10:50:49;;;;;;;;;;;;;;;-140.72;0.00;51851.16;6248855;23;19977;-75
2023/05/27 10:53:16;;;;;;;;;;;;;;;-140.72;0.00;51784.19;6247210;23;19982;-74
2023/05/27 10:55:42;;;;;;;;;;;;;;;-140.72;0.00;51790.28;6221153;23;19991;-74
2023/05/27 10:58:07;;;;;;;;;;;;;;;-140.72;0.00;51800.44;6221189;23;19961;-73
2023/05/27 11:00:33;;;;;;;;;;;;;;;-140.72;0.00;51784.19;6247154;23;19923;-74
2023/05/27 11:02:59;;;;;;;;;;;;;;;-140.72;0.00;51729.44;6218685;23;19911;-72
2023/05/27 11:05:31;;;;;;;;;;;;;;;-140.72;0.00;51749.72;6245399;23;19912;-71
2023/05/27 11:07:58;;;;;;;;;;;;;;;-140.72;0.00;51759.84;6245792;23;19912;-72
2023/05/27 11:10:23;;;;;;;;;;;;;;;-140.72;0.00;51767.97;6218248;23;19916;-71
2023/05/27 11:12:49;;;;;;;;;;;;;;;-140.72;0.00;51741.59;6245808;23;20000;-71
2023/05/27 11:15:14;;;;;;;;;;;;;;;-140.72;0.00;51747.69;6246524;23;20029;-74
2023/05/27 11:17:46;;;;;;;;;;;;;;;-140.72;0.00;51680.72;6246107;23;19911;-74
2023/05/27 11:20:12;;;;;;;;;;;;;;;-140.72;0.00;51782.16;6219043;23;19993;-74
2023/05/27 11:22:37;;;;;;;;;;;;;;;-140.72;0.00;51763.91;6245764;23;19990;-74
2023/05/27 11:25:03;;;;;;;;;;;;;;;-140.72;0.00;51770.00;6245888;23;19994;-73
2023/05/27 11:27:35;;;;;;;;;;;;;;;-140.72;0.00;51705.06;6245473;23;19912;-74
2023/05/27 11:30:05;;;;;;;;;;;;;;;-140.72;0.00;51743.63;6246248;23;19915;-74
2023/05/27 11:32:33;;;;;;;;;;;;;;;-140.72;0.00;51772.03;6245803;23;19922;-73
2023/05/27 11:35:21;;;;;;;;;;;;;;;-140.72;0.00;51753.78;6245453;22;19972;-73
2023/05/27 11:37:49;;;;;;;;;;;;;;;-140.72;0.00;51741.59;6218416;23;19912;-74
2023/05/27 11:40:23;;;;;;;;;;;;;;;-140.72;0.00;51705.06;6245500;23;19919;-74
2023/05/27 11:42:49;;;;;;;;;;;;;;;-140.72;0.00;51692.91;6218097;23;19974;-73
2023/05/27 11:45:15;;;;;;;;;;;;;;;-140.72;0.00;51705.06;6245425;23;20300;-73
2023/05/27 11:47:41;;;;;;;;;;;;;;;-140.72;0.00;51741.59;6245035;23;19919;-73
2023/05/27 11:50:07;;;;;;;;;;;;;;;-140.72;0.00;51656.38;6218543;23;19911;-73
2023/05/27 11:53:08;;;;;;;;;;;;;;;-140.72;0.00;51684.78;6245616;23;19926;-73
2023/05/27 11:55:33;;;;;;;;;;;;;;;-140.72;0.00;51674.66;6218240;23;19911;-73
2023/05/27 11:57:59;;;;;;;;;;;;;;;-140.72;0.00;51709.13;6245329;23;19938;-73
2023/05/27 12:00:24;;;;;;;;;;;;;;;-140.72;0.00;51690.88;6244802;23;19965;-74
2023/05/27 12:02:49;;;;;;;;;;;;;;;-140.72;0.00;51654.34;6245158;23;19919;-74
2023/05/27 12:05:16;;;;;;;;;;;;;;;-140.72;0.00;51650.31;6217692;23;19912;-73
2023/05/27 12:07:41;;;;;;;;;;;;;;;-140.72;0.00;51658.41;6244849;23;19912;-73
2023/05/27 12:10:11;;;;;;;;;;;;;;;-140.72;0.00;51644.22;6217540;23;19920;-73
2023/05/27 12:12:37;;;;;;;;;;;;;;;-140.72;0.00;51611.75;6218485;23;20204;-74
2023/05/27 12:15:03;;;;;;;;;;;;;;;-140.72;0.00;51613.78;6245033;23;19970;-74
2023/05/27 12:17:28;;;;;;;;;;;;;;;-140.72;0.00;51636.09;6245433;23;19915;-74
2023/05/27 12:20:31;;;;;;;;;;;;;;;-140.72;0.00;51625.97;6245085;23;19918;-74
2023/05/27 12:22:56;;;;;;;;;;;;;;;-140.72;0.00;51630.00;6245118;23;19911;-74